NFC9355 SBKP-GOBD
Flight info
| Callsign | NFC9355 |
|---|---|
| Flight time | N/A |
| Altitude | 31000 |
| Route | KONVI2C KONVI UZ23 ANBEX DCT REC UB623 FNR/N0474F330 UB623 UTRAM DCT 02N028W 06N024W DCT TURUP UA302 PIVSA PIVSA1D |
| Aircraft | A306/H-SDE3FGHIRWY/LB1 |
Departure
| Time | 2026-05-09 11:32 |
|---|---|
| Airport | Viracopos International Airport (SBKP) |
Arrival
| Time | N/A |
|---|---|
| Airport | Blaise Diagne International Airport (GOBD) |
| Time | Latitude | Longitude | Altitude | Speed | Heading |
|---|---|---|---|---|---|
| 2026-05-09 11:02 | -23.00428 | -47.14543 | 2163 ft | 0 kts | 218° |
| 2026-05-09 11:24 | -23.00414 | -47.14531 | 2154 ft | 4 kts | 218° |
| 2026-05-09 11:24 | -23.00393 | -47.14513 | 2154 ft | 4 kts | 218° |
| 2026-05-09 11:24 | -23.00371 | -47.14495 | 2154 ft | 4 kts | 221° |
| 2026-05-09 11:24 | -23.00358 | -47.14474 | 2154 ft | 4 kts | 272° |
| 2026-05-09 11:25 | -23.00366 | -47.14449 | 2154 ft | 2 kts | 307° |
| 2026-05-09 11:25 | -23.00367 | -47.14448 | 2154 ft | 0 kts | 307° |
| 2026-05-09 11:28 | -23.00366 | -47.14448 | 2154 ft | 0 kts | 307° |
| 2026-05-09 11:28 | -23.00335 | -47.14498 | 2155 ft | 16 kts | 302° |
| 2026-05-09 11:28 | -23.00247 | -47.14625 | 2160 ft | 27 kts | 307° |
| 2026-05-09 11:29 | -23.00188 | -47.14708 | 2159 ft | 0 kts | 307° |
| 2026-05-09 11:29 | -23.00177 | -47.14725 | 2157 ft | 9 kts | 307° |
| 2026-05-09 11:29 | -23.00147 | -47.14776 | 2160 ft | 1 kts | 303° |
| 2026-05-09 11:29 | -23.00131 | -47.14792 | 2159 ft | 11 kts | 326° |
| 2026-05-09 11:30 | -23.00024 | -47.14804 | 2156 ft | 17 kts | 2° |
| 2026-05-09 11:30 | -22.99917 | -47.14753 | 2158 ft | 14 kts | 43° |
| 2026-05-09 11:30 | -22.99878 | -47.14660 | 2157 ft | 3 kts | 106° |
| 2026-05-09 11:30 | -22.99890 | -47.14640 | 2155 ft | 6 kts | 124° |
| 2026-05-09 11:31 | -23.00053 | -47.14407 | 2155 ft | 69 kts | 126° |
| 2026-05-09 11:31 | -23.00451 | -47.13836 | 2155 ft | 115 kts | 130° |
| 2026-05-09 11:31 | -23.01046 | -47.13018 | 2159 ft | 161 kts | 127° |
| 2026-05-09 11:31 | -23.01839 | -47.11959 | 2369 ft | 193 kts | 128° |
| 2026-05-09 11:32 | -23.02631 | -47.10751 | 3102 ft | 207 kts | 112° |
| 2026-05-09 11:32 | -23.02815 | -47.09168 | 3481 ft | 220 kts | 77° |
| 2026-05-09 11:32 | -23.02376 | -47.07548 | 3779 ft | 231 kts | 64° |
| 2026-05-09 11:32 | -23.01776 | -47.05839 | 4005 ft | 253 kts | 65° |
| 2026-05-09 11:33 | -23.01191 | -47.03974 | 4375 ft | 267 kts | 67° |
| 2026-05-09 11:33 | -23.00545 | -47.02076 | 4905 ft | 268 kts | 52° |
| 2026-05-09 11:33 | -22.97775 | -46.99460 | 5900 ft | 272 kts | 30° |
| 2026-05-09 11:34 | -22.96213 | -46.98251 | 6478 ft | 278 kts | 31° |
| 2026-05-09 11:34 | -22.94654 | -46.97021 | 7075 ft | 281 kts | 31° |
| 2026-05-09 11:34 | -22.93078 | -46.95759 | 7639 ft | 280 kts | 32° |
| 2026-05-09 11:34 | -22.91515 | -46.94496 | 7937 ft | 280 kts | 32° |
| 2026-05-09 11:35 | -22.89977 | -46.93184 | 7987 ft | 282 kts | 34° |
| 2026-05-09 11:35 | -22.88475 | -46.91812 | 7979 ft | 283 kts | 35° |
| 2026-05-09 11:35 | -22.86975 | -46.90428 | 8118 ft | 283 kts | 35° |
| 2026-05-09 11:35 | -22.85467 | -46.89030 | 8523 ft | 288 kts | 35° |
| 2026-05-09 11:36 | -22.83943 | -46.87617 | 9125 ft | 293 kts | 36° |
| 2026-05-09 11:36 | -22.82385 | -46.86171 | 9705 ft | 295 kts | 36° |
| 2026-05-09 11:36 | -22.80824 | -46.84726 | 10004 ft | 294 kts | 36° |
| 2026-05-09 11:36 | -22.79269 | -46.83284 | 10048 ft | 294 kts | 36° |
| 2026-05-09 11:37 | -22.77720 | -46.81828 | 10056 ft | 295 kts | 38° |
| 2026-05-09 11:37 | -22.76242 | -46.80280 | 10061 ft | 296 kts | 40° |
| 2026-05-09 11:37 | -22.74785 | -46.78693 | 10073 ft | 297 kts | 40° |
| 2026-05-09 11:37 | -22.73350 | -46.77120 | 10075 ft | 297 kts | 40° |
| 2026-05-09 11:38 | -22.71900 | -46.75532 | 10072 ft | 297 kts | 40° |
| 2026-05-09 11:38 | -22.70517 | -46.73858 | 10055 ft | 300 kts | 50° |
| 2026-05-09 11:38 | -22.69568 | -46.71821 | 10218 ft | 309 kts | 71° |
| 2026-05-09 11:38 | -22.69237 | -46.69468 | 10449 ft | 326 kts | 83° |
| 2026-05-09 11:39 | -22.69143 | -46.66952 | 10692 ft | 342 kts | 85° |
| 2026-05-09 11:39 | -22.69097 | -46.64353 | 10941 ft | 355 kts | 86° |
| 2026-05-09 11:39 | -22.69061 | -46.61626 | 11149 ft | 369 kts | 86° |
| 2026-05-09 11:40 | -22.68990 | -46.55876 | 11574 ft | 392 kts | 87° |
| 2026-05-09 11:40 | -22.68954 | -46.52885 | 11829 ft | 402 kts | 87° |
| 2026-05-09 11:40 | -22.68915 | -46.49841 | 12162 ft | 407 kts | 87° |
| 2026-05-09 11:40 | -22.68877 | -46.46764 | 12607 ft | 409 kts | 87° |
| 2026-05-09 11:41 | -22.68837 | -46.43663 | 12967 ft | 412 kts | 86° |
| 2026-05-09 11:41 | -22.68795 | -46.40584 | 13091 ft | 414 kts | 86° |
| 2026-05-09 11:41 | -22.68753 | -46.37471 | 13104 ft | 414 kts | 87° |
| 2026-05-09 11:41 | -22.68716 | -46.34352 | 13101 ft | 414 kts | 86° |
| 2026-05-09 11:42 | -22.68491 | -46.31249 | 13203 ft | 411 kts | 77° |
| 2026-05-09 11:42 | -22.67668 | -46.28311 | 13601 ft | 407 kts | 62° |
| 2026-05-09 11:42 | -22.66228 | -46.25694 | 14056 ft | 403 kts | 51° |
| 2026-05-09 11:42 | -22.64488 | -46.23310 | 14403 ft | 404 kts | 46° |
| 2026-05-09 11:43 | -22.62591 | -46.21067 | 14761 ft | 405 kts | 43° |
| 2026-05-09 11:43 | -22.60642 | -46.18901 | 15104 ft | 406 kts | 42° |
| 2026-05-09 11:43 | -22.58621 | -46.16693 | 15448 ft | 409 kts | 42° |
| 2026-05-09 11:43 | -22.56647 | -46.14524 | 15936 ft | 408 kts | 43° |
| 2026-05-09 11:44 | -22.54665 | -46.12310 | 16290 ft | 412 kts | 43° |
| 2026-05-09 11:44 | -22.52674 | -46.10061 | 16607 ft | 415 kts | 43° |
| 2026-05-09 11:44 | -22.50678 | -46.07790 | 16946 ft | 418 kts | 43° |
| 2026-05-09 11:44 | -22.48680 | -46.05504 | 17273 ft | 419 kts | 44° |
| 2026-05-09 11:45 | -22.46672 | -46.03201 | 17561 ft | 422 kts | 43° |
| 2026-05-09 11:45 | -22.44640 | -46.00871 | 17834 ft | 425 kts | 43° |
| 2026-05-09 11:45 | -22.42635 | -45.98573 | 18137 ft | 427 kts | 43° |
| 2026-05-09 11:45 | -22.40587 | -45.96226 | 18399 ft | 429 kts | 43° |
| 2026-05-09 11:46 | -22.38518 | -45.93860 | 18548 ft | 434 kts | 43° |
| 2026-05-09 11:46 | -22.36441 | -45.91485 | 18789 ft | 436 kts | 43° |
| 2026-05-09 11:46 | -22.34353 | -45.89100 | 19036 ft | 437 kts | 43° |
| 2026-05-09 11:46 | -22.32254 | -45.86706 | 19276 ft | 439 kts | 43° |
| 2026-05-09 11:47 | -22.30175 | -45.84334 | 19484 ft | 441 kts | 43° |
| 2026-05-09 11:47 | -22.27958 | -45.82047 | 19715 ft | 440 kts | 38° |
| 2026-05-09 11:47 | -22.25629 | -45.79890 | 19944 ft | 441 kts | 37° |
| 2026-05-09 11:47 | -22.23257 | -45.77781 | 20164 ft | 443 kts | 36° |
| 2026-05-09 11:48 | -22.20848 | -45.75689 | 20356 ft | 445 kts | 35° |
| 2026-05-09 11:48 | -22.18424 | -45.73606 | 20581 ft | 446 kts | 35° |
| 2026-05-09 11:48 | -22.15991 | -45.71521 | 20824 ft | 448 kts | 35° |
| 2026-05-09 11:48 | -22.13547 | -45.69425 | 21037 ft | 449 kts | 35° |
| 2026-05-09 11:49 | -22.11090 | -45.67315 | 21262 ft | 451 kts | 35° |
| 2026-05-09 11:49 | -22.08633 | -45.65202 | 21463 ft | 453 kts | 35° |
| 2026-05-09 11:49 | -22.06168 | -45.63081 | 21687 ft | 454 kts | 35° |
| 2026-05-09 11:49 | -22.03695 | -45.60950 | 21882 ft | 456 kts | 35° |
| 2026-05-09 11:50 | -22.01210 | -45.58808 | 22065 ft | 458 kts | 35° |
| 2026-05-09 11:50 | -21.98720 | -45.56662 | 22263 ft | 459 kts | 35° |
| 2026-05-09 11:50 | -21.96252 | -45.54536 | 22478 ft | 461 kts | 35° |
| 2026-05-09 11:50 | -21.93748 | -45.52381 | 22693 ft | 462 kts | 36° |
| 2026-05-09 11:51 | -21.91227 | -45.50211 | 22898 ft | 463 kts | 36° |
| 2026-05-09 11:51 | -21.88700 | -45.48039 | 23091 ft | 465 kts | 36° |
| 2026-05-09 11:51 | -21.86167 | -45.45865 | 23276 ft | 467 kts | 35° |
| 2026-05-09 11:51 | -21.83628 | -45.43685 | 23459 ft | 468 kts | 35° |
| 2026-05-09 11:52 | -21.81073 | -45.41494 | 23659 ft | 469 kts | 35° |
| 2026-05-09 11:52 | -21.78508 | -45.39293 | 23820 ft | 471 kts | 35° |
| 2026-05-09 11:52 | -21.75945 | -45.37096 | 23984 ft | 472 kts | 36° |
| 2026-05-09 11:52 | -21.73376 | -45.34894 | 24154 ft | 473 kts | 36° |
| 2026-05-09 11:53 | -21.71660 | -45.33425 | 24259 ft | 474 kts | 36° |
| 2026-05-09 11:53 | -21.69078 | -45.31216 | 24397 ft | 475 kts | 36° |
| 2026-05-09 11:53 | -21.66486 | -45.28998 | 24536 ft | 476 kts | 36° |
| 2026-05-09 11:53 | -21.63042 | -45.26053 | 24754 ft | 478 kts | 36° |
| 2026-05-09 11:54 | -21.60441 | -45.23829 | 24901 ft | 479 kts | 36° |
| 2026-05-09 11:54 | -21.58675 | -45.22319 | 25103 ft | 477 kts | 36° |
| 2026-05-09 11:54 | -21.56112 | -45.20124 | 25470 ft | 462 kts | 35° |
| 2026-05-09 11:54 | -21.53657 | -45.18022 | 25880 ft | 454 kts | 35° |
| 2026-05-09 11:55 | -21.51187 | -45.15913 | 26213 ft | 453 kts | 35° |
| 2026-05-09 11:56 | -21.38792 | -45.05359 | 27515 ft | 456 kts | 34° |
| 2026-05-09 11:56 | -21.36295 | -45.03236 | 27747 ft | 457 kts | 35° |
| 2026-05-09 11:56 | -21.33797 | -45.01111 | 28004 ft | 458 kts | 35° |
| 2026-05-09 11:57 | -21.31324 | -44.99008 | 28252 ft | 459 kts | 35° |
| 2026-05-09 11:57 | -21.28822 | -44.96881 | 28503 ft | 459 kts | 35° |
| 2026-05-09 11:57 | -21.26318 | -44.94753 | 28764 ft | 459 kts | 35° |
| 2026-05-09 11:57 | -21.23810 | -44.92622 | 28931 ft | 459 kts | 35° |
| 2026-05-09 11:58 | -21.21304 | -44.90493 | 29082 ft | 459 kts | 34° |
| 2026-05-09 11:58 | -21.18795 | -44.88365 | 29239 ft | 459 kts | 34° |
| 2026-05-09 11:58 | -21.16292 | -44.86242 | 29403 ft | 459 kts | 35° |
| 2026-05-09 11:58 | -21.13790 | -44.84121 | 29560 ft | 459 kts | 35° |
| 2026-05-09 11:59 | -21.11286 | -44.82000 | 29713 ft | 459 kts | 34° |
| 2026-05-09 11:59 | -21.08784 | -44.79883 | 29868 ft | 459 kts | 35° |
| 2026-05-09 11:59 | -21.06283 | -44.77765 | 30026 ft | 459 kts | 34° |
| 2026-05-09 11:59 | -21.03786 | -44.75709 | 30189 ft | 458 kts | 33° |
| 2026-05-09 12:00 | -21.01211 | -44.73694 | 30332 ft | 458 kts | 32° |
| 2026-05-09 12:00 | -20.98616 | -44.71720 | 30474 ft | 457 kts | 31° |
| 2026-05-09 12:00 | -20.96005 | -44.69753 | 30603 ft | 456 kts | 31° |
| 2026-05-09 12:00 | -20.93414 | -44.67800 | 30747 ft | 456 kts | 32° |
| 2026-05-09 12:01 | -20.90818 | -44.65835 | 30891 ft | 456 kts | 32° |
| 2026-05-09 12:01 | -20.88265 | -44.63896 | 31025 ft | 455 kts | 32° |
| 2026-05-09 12:01 | -20.85679 | -44.61929 | 31143 ft | 455 kts | 32° |
| 2026-05-09 12:02 | -20.80475 | -44.57968 | 31174 ft | 463 kts | 32° |
| 2026-05-09 12:02 | -20.75161 | -44.53919 | 31172 ft | 472 kts | 32° |
| 2026-05-09 12:03 | -20.69768 | -44.49809 | 31176 ft | 479 kts | 32° |
| 2026-05-09 12:03 | -20.64334 | -44.45675 | 31178 ft | 485 kts | 32° |
| 2026-05-09 12:04 | -20.58811 | -44.41474 | 31176 ft | 489 kts | 32° |
| 2026-05-09 12:04 | -20.53271 | -44.37265 | 31183 ft | 493 kts | 32° |
| 2026-05-09 12:05 | -20.47635 | -44.32988 | 31175 ft | 494 kts | 32° |
| 2026-05-09 12:05 | -20.42071 | -44.28731 | 31186 ft | 495 kts | 33° |
| 2026-05-09 12:06 | -20.36527 | -44.24343 | 31182 ft | 495 kts | 34° |
| 2026-05-09 12:06 | -20.31006 | -44.19937 | 31178 ft | 495 kts | 34° |
| 2026-05-09 12:07 | -20.25483 | -44.15546 | 31176 ft | 495 kts | 34° |
| 2026-05-09 12:07 | -20.19980 | -44.11188 | 31190 ft | 495 kts | 34° |
| 2026-05-09 12:08 | -20.14445 | -44.06812 | 31195 ft | 495 kts | 34° |
| 2026-05-09 12:08 | -20.08915 | -44.02446 | 31203 ft | 495 kts | 34° |
| 2026-05-09 12:09 | -20.03378 | -43.98081 | 31213 ft | 495 kts | 34° |
| 2026-05-09 12:09 | -19.97828 | -43.93716 | 31210 ft | 495 kts | 34° |
| 2026-05-09 12:10 | -19.86769 | -43.85025 | 31213 ft | 495 kts | 34° |
| 2026-05-09 12:11 | -19.81137 | -43.80787 | 31206 ft | 495 kts | 32° |
| 2026-05-09 12:11 | -19.75434 | -43.76688 | 31198 ft | 495 kts | 32° |
| 2026-05-09 12:12 | -19.69750 | -43.72611 | 31194 ft | 495 kts | 32° |
| 2026-05-09 12:12 | -19.64053 | -43.68504 | 31200 ft | 495 kts | 32° |
| 2026-05-09 12:13 | -19.58349 | -43.64384 | 31194 ft | 495 kts | 32° |
| 2026-05-09 12:13 | -19.52643 | -43.60259 | 31192 ft | 496 kts | 32° |
| 2026-05-09 12:14 | -19.46972 | -43.56164 | 31182 ft | 496 kts | 32° |
| 2026-05-09 12:14 | -19.41255 | -43.52046 | 31181 ft | 496 kts | 32° |
| 2026-05-09 12:15 | -19.35543 | -43.47934 | 31183 ft | 496 kts | 32° |
| 2026-05-09 12:15 | -19.29881 | -43.43820 | 31183 ft | 496 kts | 34° |
| 2026-05-09 12:16 | -19.24335 | -43.39464 | 31185 ft | 497 kts | 36° |
| 2026-05-09 12:16 | -19.18828 | -43.35030 | 31184 ft | 497 kts | 36° |
| 2026-05-09 12:17 | -19.13309 | -43.30612 | 31186 ft | 497 kts | 35° |
| 2026-05-09 12:17 | -19.07800 | -43.26235 | 31181 ft | 497 kts | 35° |
| 2026-05-09 12:18 | -19.02263 | -43.21852 | 31183 ft | 497 kts | 35° |
| 2026-05-09 12:18 | -18.96726 | -43.17470 | 31178 ft | 497 kts | 35° |
| 2026-05-09 12:19 | -18.91186 | -43.13089 | 31177 ft | 497 kts | 35° |
| 2026-05-09 12:19 | -18.85675 | -43.08730 | 31180 ft | 497 kts | 35° |
| 2026-05-09 12:20 | -18.80132 | -43.04352 | 31178 ft | 497 kts | 35° |
| 2026-05-09 12:20 | -18.74589 | -42.99977 | 31180 ft | 497 kts | 36° |
| 2026-05-09 12:21 | -18.69077 | -42.95625 | 31182 ft | 497 kts | 35° |
| 2026-05-09 12:21 | -18.63544 | -42.91260 | 31184 ft | 497 kts | 35° |
| 2026-05-09 12:22 | -18.58000 | -42.86890 | 31182 ft | 497 kts | 36° |
| 2026-05-09 12:22 | -18.52466 | -42.82531 | 31184 ft | 497 kts | 36° |
| 2026-05-09 12:23 | -18.46956 | -42.78199 | 31184 ft | 496 kts | 36° |
| 2026-05-09 12:23 | -18.41421 | -42.73854 | 31184 ft | 496 kts | 36° |
| 2026-05-09 12:24 | -18.35875 | -42.69503 | 31182 ft | 497 kts | 36° |
| 2026-05-09 12:24 | -18.30328 | -42.65154 | 31181 ft | 497 kts | 36° |
| 2026-05-09 12:25 | -18.24777 | -42.60805 | 31173 ft | 497 kts | 36° |
| 2026-05-09 12:25 | -18.19231 | -42.56464 | 31174 ft | 496 kts | 36° |
| 2026-05-09 12:26 | -18.13709 | -42.52144 | 31173 ft | 497 kts | 36° |
| 2026-05-09 12:26 | -18.08150 | -42.47801 | 31173 ft | 497 kts | 36° |
| 2026-05-09 12:27 | -18.02632 | -42.43492 | 31180 ft | 497 kts | 36° |
| 2026-05-09 12:27 | -17.97072 | -42.39154 | 31183 ft | 497 kts | 36° |
| 2026-05-09 12:28 | -17.91495 | -42.34805 | 31180 ft | 497 kts | 36° |
| 2026-05-09 12:28 | -17.85971 | -42.30503 | 31179 ft | 497 kts | 36° |
| 2026-05-09 12:29 | -17.80401 | -42.26167 | 31187 ft | 497 kts | 36° |
| 2026-05-09 12:29 | -17.74837 | -42.21841 | 31186 ft | 498 kts | 36° |
| 2026-05-09 12:30 | -17.69304 | -42.17542 | 31182 ft | 497 kts | 36° |
| 2026-05-09 12:30 | -17.60974 | -42.11072 | 31184 ft | 496 kts | 36° |
| 2026-05-09 12:31 | -17.52630 | -42.04604 | 31187 ft | 497 kts | 36° |
| 2026-05-09 12:32 | -17.47097 | -42.00316 | 31180 ft | 498 kts | 36° |
| 2026-05-09 12:32 | -17.41524 | -41.95998 | 31181 ft | 497 kts | 36° |
| 2026-05-09 12:33 | -17.35957 | -41.91685 | 31186 ft | 497 kts | 36° |
| 2026-05-09 12:33 | -17.30432 | -41.87408 | 31185 ft | 497 kts | 36° |
| 2026-05-09 12:34 | -17.24853 | -41.83092 | 31186 ft | 498 kts | 36° |
| 2026-05-09 12:34 | -17.19275 | -41.78782 | 31181 ft | 498 kts | 36° |
| 2026-05-09 12:35 | -17.13696 | -41.74475 | 31178 ft | 497 kts | 36° |
| 2026-05-09 12:35 | -17.08152 | -41.70197 | 31180 ft | 498 kts | 36° |
| 2026-05-09 12:36 | -17.02574 | -41.65895 | 31181 ft | 498 kts | 36° |
| 2026-05-09 12:36 | -16.96998 | -41.61600 | 31181 ft | 498 kts | 36° |
| 2026-05-09 12:37 | -16.91450 | -41.57328 | 31180 ft | 498 kts | 36° |
| 2026-05-09 12:37 | -16.85869 | -41.53035 | 31175 ft | 497 kts | 36° |
| 2026-05-09 12:38 | -16.80303 | -41.48757 | 31183 ft | 497 kts | 36° |
| 2026-05-09 12:38 | -16.74734 | -41.44479 | 31181 ft | 497 kts | 36° |
| 2026-05-09 12:39 | -16.69170 | -41.40206 | 31176 ft | 497 kts | 36° |
| 2026-05-09 12:39 | -16.63610 | -41.35901 | 31181 ft | 497 kts | 36° |
| 2026-05-09 12:40 | -16.58088 | -41.31610 | 31174 ft | 497 kts | 36° |
| 2026-05-09 12:40 | -16.52545 | -41.27309 | 31173 ft | 497 kts | 36° |
| 2026-05-09 12:41 | -16.47894 | -41.23705 | 31175 ft | 497 kts | 36° |
| 2026-05-09 12:41 | -16.42382 | -41.19438 | 31174 ft | 497 kts | 36° |
| 2026-05-09 12:42 | -16.36805 | -41.15125 | 31173 ft | 497 kts | 36° |
| 2026-05-09 12:42 | -16.31282 | -41.10856 | 31173 ft | 497 kts | 36° |
| 2026-05-09 12:43 | -16.25729 | -41.06568 | 31176 ft | 497 kts | 36° |
| 2026-05-09 12:43 | -16.20168 | -41.02276 | 31173 ft | 498 kts | 36° |
| 2026-05-09 12:44 | -16.14627 | -40.98002 | 31173 ft | 498 kts | 36° |
| 2026-05-09 12:44 | -16.09054 | -40.93707 | 31172 ft | 498 kts | 36° |
| 2026-05-09 12:45 | -16.03475 | -40.89410 | 31171 ft | 497 kts | 36° |
| 2026-05-09 12:45 | -15.97939 | -40.85149 | 31175 ft | 498 kts | 36° |
| 2026-05-09 12:46 | -15.92365 | -40.80863 | 31171 ft | 498 kts | 36° |
| 2026-05-09 12:46 | -15.86785 | -40.76574 | 31170 ft | 498 kts | 36° |
| 2026-05-09 12:47 | -15.81211 | -40.72294 | 31170 ft | 498 kts | 36° |
| 2026-05-09 12:47 | -15.75632 | -40.68012 | 31169 ft | 499 kts | 36° |
| 2026-05-09 12:48 | -15.70073 | -40.63750 | 31170 ft | 499 kts | 36° |
| 2026-05-09 12:48 | -15.64484 | -40.59467 | 31169 ft | 499 kts | 36° |
| 2026-05-09 12:49 | -15.58903 | -40.55193 | 31167 ft | 499 kts | 36° |
| 2026-05-09 12:49 | -15.53299 | -40.50902 | 31165 ft | 499 kts | 36° |
| 2026-05-09 12:50 | -15.47738 | -40.46650 | 31157 ft | 500 kts | 36° |
| 2026-05-09 12:50 | -15.42132 | -40.42366 | 31154 ft | 500 kts | 36° |
| 2026-05-09 12:51 | -15.36520 | -40.38079 | 31151 ft | 500 kts | 36° |
| 2026-05-09 12:51 | -15.30951 | -40.33829 | 31154 ft | 500 kts | 36° |
| 2026-05-09 12:52 | -15.25330 | -40.29542 | 31151 ft | 500 kts | 36° |
| 2026-05-09 12:52 | -15.19718 | -40.25266 | 31153 ft | 500 kts | 36° |
| 2026-05-09 12:53 | -15.14140 | -40.21018 | 31153 ft | 500 kts | 36° |
| 2026-05-09 12:53 | -15.08522 | -40.16743 | 31151 ft | 500 kts | 36° |
| 2026-05-09 12:54 | -15.02900 | -40.12467 | 31155 ft | 501 kts | 36° |
| 2026-05-09 12:54 | -14.97281 | -40.08198 | 31147 ft | 501 kts | 36° |
| 2026-05-09 12:55 | -14.91690 | -40.03953 | 31148 ft | 501 kts | 36° |
| 2026-05-09 12:55 | -14.86068 | -39.99685 | 31147 ft | 501 kts | 36° |
| 2026-05-09 12:56 | -14.80439 | -39.95416 | 31149 ft | 502 kts | 36° |
| 2026-05-09 12:56 | -14.74801 | -39.91144 | 31140 ft | 502 kts | 36° |
| 2026-05-09 12:57 | -14.69189 | -39.86892 | 31142 ft | 502 kts | 36° |
| 2026-05-09 12:57 | -14.63548 | -39.82622 | 31141 ft | 502 kts | 36° |
| 2026-05-09 12:58 | -14.57912 | -39.78360 | 31142 ft | 502 kts | 36° |
| 2026-05-09 12:58 | -14.52281 | -39.74103 | 31138 ft | 502 kts | 36° |
| 2026-05-09 12:59 | -14.46644 | -39.69844 | 31136 ft | 502 kts | 36° |
| 2026-05-09 12:59 | -14.41043 | -39.65614 | 31136 ft | 502 kts | 36° |
| 2026-05-09 13:00 | -14.35401 | -39.61358 | 31139 ft | 502 kts | 36° |
| 2026-05-09 13:00 | -14.29746 | -39.57098 | 31137 ft | 503 kts | 36° |
| 2026-05-09 13:01 | -14.24118 | -39.52877 | 31137 ft | 503 kts | 35° |
| 2026-05-09 13:01 | -14.18448 | -39.48630 | 31134 ft | 503 kts | 35° |
| 2026-05-09 13:02 | -14.12788 | -39.44393 | 31131 ft | 503 kts | 36° |
| 2026-05-09 13:02 | -14.07111 | -39.40145 | 31134 ft | 503 kts | 35° |
| 2026-05-09 13:03 | -14.01485 | -39.35938 | 31130 ft | 503 kts | 35° |
| 2026-05-09 13:03 | -13.95808 | -39.31696 | 31127 ft | 503 kts | 35° |
| 2026-05-09 13:04 | -13.90139 | -39.27462 | 31125 ft | 503 kts | 36° |
| 2026-05-09 13:04 | -13.84473 | -39.23232 | 31126 ft | 503 kts | 35° |
| 2026-05-09 13:05 | -13.78805 | -39.19003 | 31123 ft | 503 kts | 35° |
| 2026-05-09 13:05 | -13.73166 | -39.14799 | 31122 ft | 503 kts | 35° |
| 2026-05-09 13:06 | -13.67494 | -39.10573 | 31117 ft | 503 kts | 35° |
| 2026-05-09 13:06 | -13.61823 | -39.06349 | 31117 ft | 503 kts | 35° |
| 2026-05-09 13:07 | -13.56145 | -39.02129 | 31112 ft | 503 kts | 35° |
| 2026-05-09 13:07 | -13.50464 | -38.97924 | 31110 ft | 503 kts | 35° |
| 2026-05-09 13:08 | -13.44806 | -38.93740 | 31108 ft | 503 kts | 35° |
| 2026-05-09 13:08 | -13.39116 | -38.89533 | 31108 ft | 503 kts | 35° |
| 2026-05-09 13:09 | -13.33454 | -38.85349 | 31105 ft | 503 kts | 35° |
| 2026-05-09 13:09 | -13.27767 | -38.81148 | 31102 ft | 503 kts | 35° |
| 2026-05-09 13:10 | -13.22078 | -38.76948 | 31100 ft | 503 kts | 35° |
| 2026-05-09 13:10 | -13.16413 | -38.72769 | 31097 ft | 503 kts | 35° |
| 2026-05-09 13:11 | -13.10723 | -38.68573 | 31103 ft | 503 kts | 35° |
| 2026-05-09 13:11 | -13.05028 | -38.64376 | 31099 ft | 503 kts | 35° |
| 2026-05-09 13:12 | -12.99334 | -38.60183 | 31101 ft | 503 kts | 35° |
| 2026-05-09 13:12 | -12.93671 | -38.56014 | 31097 ft | 503 kts | 35° |
| 2026-05-09 13:13 | -12.87978 | -38.51826 | 31098 ft | 503 kts | 35° |
| 2026-05-09 13:13 | -12.82329 | -38.47672 | 31099 ft | 503 kts | 35° |
| 2026-05-09 13:14 | -12.76634 | -38.43488 | 31080 ft | 503 kts | 35° |
| 2026-05-09 13:16 | -12.53906 | -38.26809 | 31094 ft | 503 kts | 35° |
| 2026-05-09 13:16 | -12.48205 | -38.22632 | 31092 ft | 503 kts | 35° |
| 2026-05-09 13:17 | -12.42509 | -38.18461 | 31095 ft | 503 kts | 35° |
| 2026-05-09 13:17 | -12.36850 | -38.14317 | 31091 ft | 503 kts | 35° |
| 2026-05-09 13:18 | -12.31151 | -38.10147 | 31090 ft | 503 kts | 35° |
| 2026-05-09 13:18 | -12.25448 | -38.05979 | 31087 ft | 503 kts | 34° |
| 2026-05-09 13:19 | -12.19749 | -38.01820 | 31090 ft | 503 kts | 34° |
| 2026-05-09 13:19 | -12.14076 | -37.97682 | 31085 ft | 503 kts | 34° |
| 2026-05-09 13:20 | -12.08366 | -37.93518 | 31086 ft | 503 kts | 34° |
| 2026-05-09 13:20 | -12.02660 | -37.89358 | 31085 ft | 503 kts | 34° |
| 2026-05-09 13:21 | -11.96954 | -37.85200 | 31083 ft | 503 kts | 34° |
| 2026-05-09 13:21 | -11.91286 | -37.81073 | 31082 ft | 503 kts | 34° |
| 2026-05-09 13:22 | -11.85571 | -37.76917 | 31080 ft | 503 kts | 34° |
| 2026-05-09 13:22 | -11.79853 | -37.72773 | 31078 ft | 503 kts | 34° |
| 2026-05-09 13:23 | -11.65601 | -37.62454 | 31077 ft | 502 kts | 34° |
| 2026-05-09 13:24 | -11.59897 | -37.58328 | 31074 ft | 503 kts | 34° |
| 2026-05-09 13:24 | -11.54184 | -37.54196 | 31071 ft | 503 kts | 34° |
| 2026-05-09 13:25 | -11.48511 | -37.50095 | 31069 ft | 503 kts | 34° |
| 2026-05-09 13:26 | -11.39945 | -37.43909 | 31069 ft | 502 kts | 34° |
| 2026-05-09 13:26 | -11.34243 | -37.39793 | 31067 ft | 501 kts | 34° |
| 2026-05-09 13:27 | -11.28581 | -37.35707 | 31065 ft | 501 kts | 34° |
| 2026-05-09 13:27 | -11.22876 | -37.31593 | 31066 ft | 502 kts | 34° |
| 2026-05-09 13:28 | -11.18131 | -37.28172 | 31061 ft | 502 kts | 34° |
| 2026-05-09 13:28 | -11.11496 | -37.23391 | 31056 ft | 502 kts | 34° |
| 2026-05-09 13:29 | -11.06714 | -37.19948 | 31051 ft | 501 kts | 34° |
| 2026-05-09 13:29 | -11.01049 | -37.15871 | 31049 ft | 501 kts | 34° |
| 2026-05-09 13:30 | -10.95342 | -37.11773 | 31048 ft | 501 kts | 34° |
| 2026-05-09 13:30 | -10.89628 | -37.07680 | 31047 ft | 502 kts | 34° |
| 2026-05-09 13:31 | -10.83949 | -37.03614 | 31046 ft | 502 kts | 34° |
| 2026-05-09 13:31 | -10.78238 | -36.99526 | 31054 ft | 502 kts | 34° |
| 2026-05-09 13:32 | -10.72518 | -36.95432 | 31054 ft | 501 kts | 34° |
| 2026-05-09 13:32 | -10.63989 | -36.89333 | 31052 ft | 501 kts | 34° |
| 2026-05-09 13:33 | -10.58286 | -36.85257 | 31051 ft | 501 kts | 34° |
| 2026-05-09 13:33 | -10.52571 | -36.81174 | 31054 ft | 501 kts | 34° |
| 2026-05-09 13:34 | -10.46895 | -36.77121 | 31054 ft | 501 kts | 34° |
| 2026-05-09 13:34 | -10.41184 | -36.73044 | 31052 ft | 501 kts | 34° |
| 2026-05-09 13:35 | -10.35475 | -36.68972 | 31050 ft | 501 kts | 34° |
| 2026-05-09 13:35 | -10.29767 | -36.64901 | 31045 ft | 501 kts | 34° |
| 2026-05-09 13:36 | -10.24097 | -36.60859 | 31052 ft | 501 kts | 34° |
| 2026-05-09 13:36 | -10.18375 | -36.56783 | 31049 ft | 501 kts | 34° |
| 2026-05-09 13:37 | -10.12656 | -36.52714 | 31044 ft | 501 kts | 34° |
| 2026-05-09 13:37 | -10.06967 | -36.48680 | 31044 ft | 501 kts | 33° |
| 2026-05-09 13:38 | -10.01240 | -36.44623 | 31045 ft | 501 kts | 33° |
| 2026-05-09 13:38 | -9.95522 | -36.40575 | 31046 ft | 501 kts | 33° |
| 2026-05-09 13:39 | -9.89806 | -36.36528 | 31045 ft | 501 kts | 34° |
| 2026-05-09 13:39 | -9.84130 | -36.32512 | 31041 ft | 501 kts | 33° |
| 2026-05-09 13:40 | -9.78411 | -36.28467 | 31049 ft | 501 kts | 34° |
| 2026-05-09 13:40 | -9.72694 | -36.24424 | 31045 ft | 500 kts | 34° |
| 2026-05-09 13:41 | -9.66990 | -36.20393 | 31047 ft | 499 kts | 34° |
| 2026-05-09 13:41 | -9.61328 | -36.16393 | 31050 ft | 498 kts | 34° |
| 2026-05-09 13:42 | -9.55640 | -36.12377 | 31046 ft | 498 kts | 34° |
| 2026-05-09 13:42 | -9.49950 | -36.08360 | 31046 ft | 498 kts | 34° |
| 2026-05-09 13:43 | -9.44250 | -36.04338 | 31037 ft | 498 kts | 34° |
| 2026-05-09 13:43 | -9.38586 | -36.00343 | 31044 ft | 498 kts | 34° |
| 2026-05-09 13:44 | -9.32895 | -35.96332 | 31043 ft | 498 kts | 34° |
| 2026-05-09 13:44 | -9.27204 | -35.92322 | 31037 ft | 498 kts | 34° |
| 2026-05-09 13:45 | -9.21511 | -35.88312 | 31046 ft | 498 kts | 34° |
| 2026-05-09 13:45 | -9.15825 | -35.84307 | 31047 ft | 498 kts | 34° |
| 2026-05-09 13:46 | -9.10130 | -35.80298 | 31043 ft | 498 kts | 33° |
| 2026-05-09 13:46 | -9.04435 | -35.76290 | 31045 ft | 498 kts | 34° |
| 2026-05-09 13:47 | -8.99089 | -35.71887 | 31047 ft | 499 kts | 40° |
| 2026-05-09 13:47 | -8.93932 | -35.67156 | 31046 ft | 499 kts | 41° |
| 2026-05-09 13:48 | -8.88829 | -35.62392 | 31042 ft | 499 kts | 41° |
| 2026-05-09 13:48 | -8.83749 | -35.57654 | 31042 ft | 499 kts | 41° |
| 2026-05-09 13:49 | -8.78648 | -35.52911 | 31034 ft | 499 kts | 41° |
| 2026-05-09 13:49 | -8.73525 | -35.48156 | 31038 ft | 499 kts | 41° |
| 2026-05-09 13:50 | -8.68404 | -35.43407 | 31034 ft | 499 kts | 41° |
| 2026-05-09 13:50 | -8.63312 | -35.38687 | 31037 ft | 498 kts | 41° |
| 2026-05-09 13:51 | -8.58212 | -35.33960 | 31034 ft | 496 kts | 41° |
| 2026-05-09 13:51 | -8.53121 | -35.29243 | 31034 ft | 496 kts | 41° |
| 2026-05-09 13:52 | -8.48028 | -35.24525 | 31024 ft | 496 kts | 41° |
| 2026-05-09 13:52 | -8.42935 | -35.19808 | 31026 ft | 496 kts | 41° |
| 2026-05-09 13:53 | -8.37871 | -35.15121 | 31023 ft | 496 kts | 41° |
| 2026-05-09 13:53 | -8.32770 | -35.10402 | 31010 ft | 496 kts | 41° |
| 2026-05-09 13:54 | -8.27667 | -35.05684 | 31004 ft | 496 kts | 41° |
| 2026-05-09 13:54 | -8.22613 | -35.01012 | 30997 ft | 496 kts | 41° |
| 2026-05-09 13:55 | -8.17521 | -34.96305 | 30990 ft | 495 kts | 41° |
| 2026-05-09 13:55 | -8.12172 | -34.91963 | 30997 ft | 492 kts | 31° |
| 2026-05-09 13:56 | -8.06374 | -34.88369 | 30990 ft | 491 kts | 29° |
| 2026-05-09 13:56 | -8.00472 | -34.84892 | 30995 ft | 490 kts | 28° |
| 2026-05-09 13:57 | -7.94570 | -34.81437 | 30998 ft | 490 kts | 28° |
| 2026-05-09 13:57 | -7.88676 | -34.77968 | 31000 ft | 490 kts | 28° |
| 2026-05-09 13:58 | -7.82786 | -34.74491 | 31005 ft | 490 kts | 28° |
| 2026-05-09 13:58 | -7.76895 | -34.71012 | 31001 ft | 490 kts | 28° |
| 2026-05-09 13:59 | -7.71044 | -34.67557 | 30993 ft | 490 kts | 28° |
| 2026-05-09 13:59 | -7.65194 | -34.64106 | 30999 ft | 490 kts | 28° |
| 2026-05-09 14:00 | -7.61290 | -34.61803 | 30996 ft | 490 kts | 28° |
| 2026-05-09 14:00 | -7.53410 | -34.57157 | 30995 ft | 490 kts | 28° |
| 2026-05-09 14:01 | -7.47566 | -34.53712 | 30990 ft | 490 kts | 28° |
| 2026-05-09 14:01 | -7.41658 | -34.50231 | 30989 ft | 491 kts | 29° |
| 2026-05-09 14:02 | -7.35776 | -34.46766 | 30992 ft | 491 kts | 28° |
| 2026-05-09 14:02 | -7.29876 | -34.43292 | 30994 ft | 491 kts | 28° |
| 2026-05-09 14:03 | -7.23964 | -34.39811 | 30985 ft | 491 kts | 28° |
| 2026-05-09 14:03 | -7.18102 | -34.36361 | 30985 ft | 491 kts | 28° |
| 2026-05-09 14:04 | -7.12192 | -34.32884 | 30983 ft | 492 kts | 28° |
| 2026-05-09 14:04 | -7.06279 | -34.29406 | 30979 ft | 492 kts | 28° |
| 2026-05-09 14:05 | -7.00370 | -34.25932 | 30989 ft | 492 kts | 28° |
| 2026-05-09 14:05 | -6.94458 | -34.22457 | 30984 ft | 492 kts | 28° |
| 2026-05-09 14:06 | -6.88582 | -34.19004 | 30979 ft | 492 kts | 28° |
| 2026-05-09 14:06 | -6.82653 | -34.15521 | 30981 ft | 492 kts | 28° |
| 2026-05-09 14:07 | -6.76767 | -34.12064 | 30976 ft | 492 kts | 28° |
| 2026-05-09 14:07 | -6.70851 | -34.08590 | 30979 ft | 492 kts | 28° |
| 2026-05-09 14:08 | -6.64935 | -34.05118 | 30987 ft | 492 kts | 28° |
| 2026-05-09 14:08 | -6.59014 | -34.01643 | 30974 ft | 492 kts | 28° |
| 2026-05-09 14:09 | -6.53139 | -33.98196 | 30977 ft | 492 kts | 28° |
| 2026-05-09 14:09 | -6.47221 | -33.94725 | 30982 ft | 492 kts | 28° |
| 2026-05-09 14:10 | -6.38335 | -33.89515 | 30987 ft | 492 kts | 28° |
| 2026-05-09 14:11 | -6.32453 | -33.86068 | 30981 ft | 492 kts | 28° |
| 2026-05-09 14:11 | -6.26529 | -33.82596 | 30971 ft | 492 kts | 28° |
| 2026-05-09 14:12 | -6.20601 | -33.79124 | 30972 ft | 492 kts | 28° |
| 2026-05-09 14:12 | -6.14718 | -33.75678 | 30972 ft | 492 kts | 28° |
| 2026-05-09 14:13 | -6.08810 | -33.72219 | 30970 ft | 492 kts | 28° |
| 2026-05-09 14:15 | -5.85180 | -33.58394 | 30967 ft | 490 kts | 29° |
| 2026-05-09 14:15 | -5.79283 | -33.54945 | 30981 ft | 490 kts | 28° |
| 2026-05-09 14:16 | -5.73414 | -33.51513 | 30979 ft | 490 kts | 28° |
| 2026-05-09 14:16 | -5.67500 | -33.48056 | 30962 ft | 489 kts | 28° |
| 2026-05-09 14:17 | -5.62608 | -33.45195 | 30981 ft | 489 kts | 28° |
| 2026-05-09 14:17 | -5.55763 | -33.41196 | 30966 ft | 489 kts | 28° |
| 2026-05-09 14:18 | -5.49879 | -33.37759 | 30978 ft | 489 kts | 28° |
| 2026-05-09 14:18 | -5.44985 | -33.34903 | 30961 ft | 489 kts | 28° |
| 2026-05-09 14:19 | -5.39098 | -33.31469 | 30979 ft | 488 kts | 28° |
| 2026-05-09 14:19 | -5.33252 | -33.28079 | 30964 ft | 488 kts | 29° |
| 2026-05-09 14:20 | -5.27367 | -33.24681 | 30956 ft | 487 kts | 28° |
| 2026-05-09 14:20 | -5.21476 | -33.21279 | 30969 ft | 487 kts | 28° |
| 2026-05-09 14:21 | -5.12692 | -33.16210 | 30969 ft | 487 kts | 28° |
| 2026-05-09 14:21 | -5.06812 | -33.12817 | 30952 ft | 486 kts | 29° |
| 2026-05-09 14:22 | -5.00960 | -33.09438 | 30969 ft | 484 kts | 28° |
| 2026-05-09 14:22 | -4.95118 | -33.06066 | 30970 ft | 484 kts | 28° |
| 2026-05-09 14:23 | -4.89313 | -33.02713 | 30970 ft | 484 kts | 29° |
| 2026-05-09 14:23 | -4.83472 | -32.99342 | 30954 ft | 484 kts | 29° |
| 2026-05-09 14:24 | -4.77624 | -32.95968 | 30958 ft | 484 kts | 29° |
| 2026-05-09 14:24 | -4.71821 | -32.92619 | 30952 ft | 483 kts | 29° |
| 2026-05-09 14:25 | -4.65996 | -32.89261 | 30951 ft | 482 kts | 29° |
| 2026-05-09 14:25 | -4.60172 | -32.85902 | 30953 ft | 482 kts | 30° |
| 2026-05-09 14:26 | -4.54342 | -32.82539 | 30952 ft | 482 kts | 29° |
| 2026-05-09 14:26 | -4.48549 | -32.79201 | 30969 ft | 482 kts | 29° |
| 2026-05-09 14:27 | -4.42715 | -32.75841 | 30970 ft | 482 kts | 29° |
| 2026-05-09 14:27 | -4.36906 | -32.72494 | 30970 ft | 481 kts | 29° |
| 2026-05-09 14:28 | -4.31091 | -32.69143 | 30951 ft | 481 kts | 29° |
| 2026-05-09 14:28 | -4.25311 | -32.65812 | 30949 ft | 481 kts | 29° |
| 2026-05-09 14:29 | -4.19503 | -32.62469 | 30950 ft | 481 kts | 29° |
| 2026-05-09 14:29 | -4.13692 | -32.59124 | 30955 ft | 481 kts | 29° |
| 2026-05-09 14:30 | -4.07922 | -32.55802 | 30955 ft | 481 kts | 29° |
| 2026-05-09 14:30 | -4.02111 | -32.52455 | 30961 ft | 481 kts | 30° |
| 2026-05-09 14:31 | -3.96294 | -32.49109 | 30961 ft | 481 kts | 29° |
| 2026-05-09 14:31 | -3.90479 | -32.45763 | 30963 ft | 481 kts | 29° |
| 2026-05-09 14:32 | -3.84700 | -32.42461 | 30962 ft | 481 kts | 28° |
| 2026-05-09 14:32 | -3.78782 | -32.39294 | 30965 ft | 481 kts | 27° |
| 2026-05-09 14:33 | -3.72841 | -32.36195 | 30967 ft | 481 kts | 27° |
| 2026-05-09 14:33 | -3.66900 | -32.33082 | 30960 ft | 481 kts | 27° |
| 2026-05-09 14:34 | -3.61003 | -32.29976 | 30956 ft | 481 kts | 27° |
| 2026-05-09 14:34 | -3.55071 | -32.26844 | 30949 ft | 482 kts | 27° |
| 2026-05-09 14:35 | -3.49131 | -32.23708 | 30954 ft | 482 kts | 27° |
| 2026-05-09 14:35 | -3.43234 | -32.20596 | 30963 ft | 482 kts | 27° |
| 2026-05-09 14:36 | -3.37296 | -32.17463 | 30957 ft | 482 kts | 27° |
| 2026-05-09 14:36 | -3.31361 | -32.14333 | 30951 ft | 482 kts | 27° |
| 2026-05-09 14:37 | -3.25637 | -32.10842 | 30964 ft | 482 kts | 36° |
| 2026-05-09 14:37 | -3.20323 | -32.06809 | 30947 ft | 482 kts | 38° |
| 2026-05-09 14:38 | -3.15015 | -32.02634 | 30952 ft | 482 kts | 38° |
| 2026-05-09 14:38 | -3.09785 | -31.98507 | 30949 ft | 482 kts | 38° |
| 2026-05-09 14:39 | -3.04506 | -31.94357 | 30949 ft | 482 kts | 38° |
| 2026-05-09 14:39 | -2.99229 | -31.90219 | 30954 ft | 482 kts | 38° |
| 2026-05-09 14:40 | -2.93945 | -31.86079 | 30946 ft | 482 kts | 38° |
| 2026-05-09 14:40 | -2.88694 | -31.81966 | 30949 ft | 482 kts | 38° |
| 2026-05-09 14:41 | -2.83417 | -31.77832 | 30953 ft | 482 kts | 38° |
| 2026-05-09 14:41 | -2.78136 | -31.73695 | 30951 ft | 482 kts | 38° |
| 2026-05-09 14:42 | -2.72849 | -31.69553 | 30952 ft | 482 kts | 38° |
| 2026-05-09 14:42 | -2.67568 | -31.65417 | 30949 ft | 482 kts | 38° |
| 2026-05-09 14:43 | -2.62288 | -31.61284 | 30957 ft | 482 kts | 38° |
| 2026-05-09 14:43 | -2.57039 | -31.57174 | 30952 ft | 481 kts | 38° |
| 2026-05-09 14:44 | -2.51769 | -31.53047 | 30948 ft | 480 kts | 38° |
| 2026-05-09 14:44 | -2.46501 | -31.48923 | 30947 ft | 481 kts | 38° |
| 2026-05-09 14:45 | -2.41264 | -31.44824 | 30943 ft | 480 kts | 38° |
| 2026-05-09 14:45 | -2.35997 | -31.40702 | 30945 ft | 480 kts | 38° |
| 2026-05-09 14:46 | -2.30725 | -31.36575 | 30950 ft | 480 kts | 38° |
| 2026-05-09 14:46 | -2.25466 | -31.32460 | 30956 ft | 480 kts | 39° |
| 2026-05-09 14:47 | -2.20205 | -31.28344 | 30947 ft | 480 kts | 38° |
| 2026-05-09 14:47 | -2.14978 | -31.24257 | 30944 ft | 479 kts | 38° |
| 2026-05-09 14:48 | -2.09728 | -31.20149 | 30943 ft | 479 kts | 38° |
| 2026-05-09 14:48 | -2.04474 | -31.16038 | 30943 ft | 479 kts | 38° |
| 2026-05-09 14:49 | -1.99221 | -31.11927 | 30946 ft | 479 kts | 38° |
| 2026-05-09 14:49 | -1.93960 | -31.07813 | 30943 ft | 479 kts | 38° |
| 2026-05-09 14:50 | -1.88729 | -31.03722 | 30950 ft | 479 kts | 38° |
| 2026-05-09 14:50 | -1.83475 | -30.99613 | 30944 ft | 479 kts | 38° |
| 2026-05-09 14:51 | -1.78215 | -30.95501 | 30946 ft | 479 kts | 38° |
| 2026-05-09 14:51 | -1.72959 | -30.91391 | 30945 ft | 479 kts | 38° |
| 2026-05-09 14:52 | -1.67697 | -30.87277 | 30944 ft | 479 kts | 38° |
| 2026-05-09 14:52 | -1.62445 | -30.83171 | 30947 ft | 479 kts | 38° |
| 2026-05-09 14:53 | -1.57216 | -30.79083 | 30950 ft | 479 kts | 38° |
| 2026-05-09 14:53 | -1.51957 | -30.74973 | 30947 ft | 479 kts | 38° |
| 2026-05-09 14:54 | -1.46711 | -30.70873 | 30948 ft | 479 kts | 38° |
| 2026-05-09 14:54 | -1.41443 | -30.66755 | 30942 ft | 479 kts | 39° |
| 2026-05-09 14:55 | -1.36216 | -30.62670 | 30948 ft | 479 kts | 38° |
| 2026-05-09 14:55 | -1.30969 | -30.58570 | 30946 ft | 479 kts | 39° |
| 2026-05-09 14:56 | -1.25712 | -30.54462 | 30941 ft | 479 kts | 39° |
| 2026-05-09 14:56 | -1.20455 | -30.50355 | 30944 ft | 479 kts | 39° |
| 2026-05-09 14:57 | -1.15205 | -30.46252 | 30943 ft | 479 kts | 39° |
| 2026-05-09 14:57 | -1.09985 | -30.42174 | 30941 ft | 479 kts | 39° |
| 2026-05-09 14:58 | -1.04722 | -30.38062 | 30944 ft | 479 kts | 39° |
| 2026-05-09 14:58 | -0.99463 | -30.33953 | 30941 ft | 479 kts | 39° |
| 2026-05-09 14:59 | -0.94214 | -30.29854 | 30945 ft | 478 kts | 39° |
| 2026-05-09 14:59 | -0.89007 | -30.25786 | 30941 ft | 478 kts | 39° |
| 2026-05-09 15:00 | -0.83765 | -30.21692 | 30945 ft | 478 kts | 39° |
| 2026-05-09 15:00 | -0.78524 | -30.17598 | 30944 ft | 478 kts | 39° |
| 2026-05-09 15:01 | -0.70688 | -30.11477 | 30946 ft | 478 kts | 39° |
| 2026-05-09 15:02 | -0.65440 | -30.07378 | 30940 ft | 478 kts | 39° |
| 2026-05-09 15:02 | -0.61088 | -30.03979 | 30941 ft | 477 kts | 39° |
| 2026-05-09 15:03 | -0.55854 | -29.99892 | 30949 ft | 477 kts | 39° |
| 2026-05-09 15:03 | -0.49774 | -29.95143 | 30940 ft | 477 kts | 39° |
| 2026-05-09 15:04 | -0.45391 | -29.91719 | 30942 ft | 477 kts | 39° |
| 2026-05-09 15:06 | -0.24511 | -29.75414 | 30938 ft | 476 kts | 39° |
| 2026-05-09 15:06 | -0.19286 | -29.71333 | 30942 ft | 476 kts | 39° |
| 2026-05-09 15:07 | -0.14096 | -29.67281 | 30942 ft | 476 kts | 39° |
| 2026-05-09 15:07 | -0.08874 | -29.63203 | 30942 ft | 476 kts | 39° |
| 2026-05-09 15:08 | -0.03638 | -29.59113 | 30939 ft | 476 kts | 39° |
| 2026-05-09 15:08 | 0.04172 | -29.53015 | 30944 ft | 476 kts | 39° |
| 2026-05-09 15:10 | 0.25047 | -29.36713 | 30945 ft | 476 kts | 39° |
| 2026-05-09 15:11 | 0.30269 | -29.32634 | 30948 ft | 476 kts | 39° |
| 2026-05-09 15:11 | 0.35494 | -29.28554 | 30942 ft | 476 kts | 39° |
| 2026-05-09 15:12 | 0.40720 | -29.24473 | 30940 ft | 476 kts | 39° |
| 2026-05-09 15:12 | 0.45909 | -29.20420 | 30943 ft | 476 kts | 39° |
| 2026-05-09 15:13 | 0.51136 | -29.16337 | 30951 ft | 476 kts | 39° |
| 2026-05-09 15:13 | 0.56324 | -29.12286 | 30943 ft | 476 kts | 39° |
| 2026-05-09 15:14 | 0.61553 | -29.08202 | 30943 ft | 476 kts | 39° |
| 2026-05-09 15:14 | 0.66779 | -29.04120 | 30942 ft | 476 kts | 39° |
| 2026-05-09 15:15 | 0.71995 | -29.00047 | 30943 ft | 476 kts | 39° |
| 2026-05-09 15:15 | 0.77182 | -28.95995 | 30943 ft | 476 kts | 39° |
| 2026-05-09 15:16 | 0.82412 | -28.91909 | 30939 ft | 476 kts | 39° |
| 2026-05-09 15:16 | 0.87601 | -28.87856 | 30941 ft | 476 kts | 39° |
| 2026-05-09 15:17 | 0.92837 | -28.83766 | 30939 ft | 476 kts | 39° |
| 2026-05-09 15:17 | 0.98031 | -28.79709 | 30944 ft | 476 kts | 39° |
| 2026-05-09 15:18 | 1.03248 | -28.75633 | 30941 ft | 476 kts | 39° |
| 2026-05-09 15:18 | 1.08487 | -28.71540 | 30940 ft | 477 kts | 39° |
| 2026-05-09 15:19 | 1.13684 | -28.67479 | 30940 ft | 477 kts | 39° |
| 2026-05-09 15:19 | 1.18925 | -28.63384 | 30942 ft | 477 kts | 39° |
| 2026-05-09 15:20 | 1.26747 | -28.57272 | 30942 ft | 477 kts | 39° |
| 2026-05-09 15:21 | 1.31989 | -28.53176 | 30938 ft | 477 kts | 39° |
| 2026-05-09 15:21 | 1.37189 | -28.49113 | 30940 ft | 477 kts | 39° |
| 2026-05-09 15:22 | 1.42432 | -28.45015 | 30941 ft | 478 kts | 39° |
| 2026-05-09 15:22 | 1.47676 | -28.40917 | 30942 ft | 478 kts | 39° |
| 2026-05-09 15:23 | 1.52894 | -28.36838 | 30938 ft | 478 kts | 39° |
| 2026-05-09 15:23 | 1.58138 | -28.32739 | 30935 ft | 478 kts | 39° |
| 2026-05-09 15:24 | 1.63382 | -28.28640 | 30938 ft | 478 kts | 39° |
| 2026-05-09 15:24 | 1.68592 | -28.24567 | 30939 ft | 478 kts | 39° |
| 2026-05-09 15:25 | 1.73846 | -28.20459 | 30942 ft | 478 kts | 39° |
| 2026-05-09 15:25 | 1.79097 | -28.16353 | 30944 ft | 478 kts | 39° |
| 2026-05-09 15:26 | 1.86949 | -28.10214 | 30937 ft | 478 kts | 39° |
| 2026-05-09 15:26 | 1.92196 | -28.06111 | 30942 ft | 479 kts | 39° |
| 2026-05-09 15:27 | 1.97422 | -28.02023 | 30944 ft | 479 kts | 39° |
| 2026-05-09 15:27 | 2.02404 | -27.97601 | 30944 ft | 478 kts | 45° |
| 2026-05-09 15:28 | 2.07148 | -27.92943 | 30943 ft | 478 kts | 46° |
| 2026-05-09 15:28 | 2.11863 | -27.88238 | 30941 ft | 478 kts | 46° |
| 2026-05-09 15:29 | 2.16550 | -27.83561 | 30944 ft | 478 kts | 46° |
| 2026-05-09 15:29 | 2.21272 | -27.78860 | 30946 ft | 478 kts | 46° |
| 2026-05-09 15:30 | 2.25991 | -27.74167 | 30942 ft | 479 kts | 46° |
| 2026-05-09 15:30 | 2.30695 | -27.69490 | 30947 ft | 479 kts | 46° |
| 2026-05-09 15:31 | 2.35420 | -27.64791 | 30945 ft | 479 kts | 46° |
| 2026-05-09 15:31 | 2.40154 | -27.60082 | 30944 ft | 479 kts | 46° |
| 2026-05-09 15:32 | 2.44889 | -27.55371 | 30944 ft | 480 kts | 46° |
| 2026-05-09 15:32 | 2.49625 | -27.50659 | 30944 ft | 480 kts | 46° |
| 2026-05-09 15:33 | 2.54339 | -27.45969 | 30945 ft | 480 kts | 46° |
| 2026-05-09 15:33 | 2.59084 | -27.41248 | 30943 ft | 480 kts | 46° |
| 2026-05-09 15:34 | 2.63834 | -27.36520 | 30944 ft | 480 kts | 46° |
| 2026-05-09 15:34 | 2.68552 | -27.31824 | 30945 ft | 480 kts | 46° |
| 2026-05-09 15:35 | 2.73292 | -27.27105 | 30940 ft | 480 kts | 46° |
| 2026-05-09 15:35 | 2.78030 | -27.22389 | 30941 ft | 481 kts | 46° |
| 2026-05-09 15:36 | 2.82781 | -27.17659 | 30945 ft | 481 kts | 46° |
| 2026-05-09 15:36 | 2.87495 | -27.12965 | 30943 ft | 481 kts | 46° |
| 2026-05-09 15:37 | 2.92245 | -27.08234 | 30942 ft | 481 kts | 46° |
| 2026-05-09 15:37 | 2.96992 | -27.03505 | 30941 ft | 481 kts | 46° |
| 2026-05-09 15:38 | 3.01738 | -26.98778 | 30945 ft | 481 kts | 46° |
| 2026-05-09 15:38 | 3.06481 | -26.94053 | 30945 ft | 481 kts | 46° |
| 2026-05-09 15:39 | 3.11191 | -26.89359 | 30943 ft | 481 kts | 46° |
| 2026-05-09 15:39 | 3.15924 | -26.84642 | 30945 ft | 481 kts | 46° |
| 2026-05-09 15:40 | 3.20668 | -26.79914 | 30940 ft | 481 kts | 46° |
| 2026-05-09 15:40 | 3.25409 | -26.75189 | 30942 ft | 481 kts | 46° |
| 2026-05-09 15:41 | 3.30162 | -26.70449 | 30945 ft | 481 kts | 46° |
| 2026-05-09 15:41 | 3.34913 | -26.65712 | 30944 ft | 481 kts | 46° |
| 2026-05-09 15:42 | 3.39632 | -26.61006 | 30940 ft | 481 kts | 46° |
| 2026-05-09 15:42 | 3.44385 | -26.56265 | 30944 ft | 481 kts | 46° |
| 2026-05-09 15:43 | 3.49140 | -26.51521 | 30944 ft | 482 kts | 46° |
| 2026-05-09 15:43 | 3.53857 | -26.46815 | 30944 ft | 481 kts | 46° |
| 2026-05-09 15:44 | 3.58610 | -26.42073 | 30939 ft | 482 kts | 46° |
| 2026-05-09 15:44 | 3.63357 | -26.37335 | 30940 ft | 482 kts | 46° |
| 2026-05-09 15:45 | 3.68106 | -26.32595 | 30942 ft | 482 kts | 46° |
| 2026-05-09 15:45 | 3.72854 | -26.27855 | 30942 ft | 482 kts | 46° |
| 2026-05-09 15:46 | 3.77599 | -26.23117 | 30942 ft | 481 kts | 46° |
| 2026-05-09 15:46 | 3.82304 | -26.18418 | 30940 ft | 480 kts | 46° |
| 2026-05-09 15:47 | 3.87032 | -26.13696 | 30941 ft | 480 kts | 46° |
| 2026-05-09 15:47 | 3.91763 | -26.08969 | 30941 ft | 480 kts | 46° |
| 2026-05-09 15:48 | 3.96488 | -26.04248 | 30941 ft | 480 kts | 46° |
| 2026-05-09 15:48 | 4.01189 | -25.99551 | 30941 ft | 480 kts | 46° |
| 2026-05-09 15:49 | 4.05920 | -25.94822 | 30943 ft | 480 kts | 46° |
| 2026-05-09 15:49 | 4.09858 | -25.90886 | 30939 ft | 480 kts | 46° |
| 2026-05-09 15:50 | 4.14593 | -25.86151 | 30945 ft | 481 kts | 46° |
| 2026-05-09 15:50 | 4.19323 | -25.81418 | 30936 ft | 480 kts | 46° |
| 2026-05-09 15:51 | 4.24039 | -25.76701 | 30941 ft | 480 kts | 46° |
| 2026-05-09 15:51 | 4.28751 | -25.71990 | 30942 ft | 480 kts | 46° |
| 2026-05-09 15:52 | 4.35856 | -25.64882 | 30939 ft | 480 kts | 46° |
| 2026-05-09 15:53 | 4.40557 | -25.60177 | 30941 ft | 480 kts | 46° |
| 2026-05-09 15:53 | 4.45282 | -25.55446 | 30940 ft | 480 kts | 46° |
| 2026-05-09 15:54 | 4.50005 | -25.50717 | 30938 ft | 480 kts | 46° |
| 2026-05-09 15:54 | 4.54744 | -25.45971 | 30938 ft | 480 kts | 46° |
| 2026-05-09 15:55 | 4.59448 | -25.41259 | 30939 ft | 480 kts | 46° |
| 2026-05-09 15:55 | 4.64176 | -25.36523 | 30942 ft | 480 kts | 46° |
| 2026-05-09 15:56 | 4.68905 | -25.31785 | 30939 ft | 480 kts | 46° |
| 2026-05-09 15:56 | 4.73638 | -25.27042 | 30939 ft | 480 kts | 46° |
| 2026-05-09 15:57 | 4.78366 | -25.22303 | 30937 ft | 480 kts | 46° |
| 2026-05-09 15:57 | 4.83094 | -25.17562 | 30934 ft | 480 kts | 46° |
| 2026-05-09 15:58 | 4.87793 | -25.12850 | 30935 ft | 481 kts | 46° |
| 2026-05-09 15:58 | 4.92525 | -25.08103 | 30937 ft | 481 kts | 46° |
| 2026-05-09 15:59 | 4.97261 | -25.03352 | 30938 ft | 481 kts | 46° |
| 2026-05-09 15:59 | 5.01989 | -24.98608 | 30938 ft | 481 kts | 46° |
| 2026-05-09 16:00 | 5.06722 | -24.93858 | 30942 ft | 481 kts | 46° |
| 2026-05-09 16:00 | 5.11455 | -24.89106 | 30941 ft | 481 kts | 46° |
| 2026-05-09 16:01 | 5.16169 | -24.84372 | 30941 ft | 481 kts | 46° |
| 2026-05-09 16:01 | 5.20897 | -24.79624 | 30937 ft | 481 kts | 46° |
| 2026-05-09 16:02 | 5.25616 | -24.74883 | 30935 ft | 482 kts | 46° |
| 2026-05-09 16:02 | 5.32728 | -24.67735 | 30937 ft | 482 kts | 46° |
| 2026-05-09 16:03 | 5.37438 | -24.63001 | 30937 ft | 481 kts | 46° |
| 2026-05-09 16:03 | 5.42176 | -24.58240 | 30942 ft | 481 kts | 46° |
| 2026-05-09 16:04 | 5.46913 | -24.53474 | 30941 ft | 481 kts | 46° |
| 2026-05-09 16:04 | 5.51620 | -24.48737 | 30943 ft | 481 kts | 46° |
| 2026-05-09 16:05 | 5.56355 | -24.43974 | 30944 ft | 482 kts | 46° |
| 2026-05-09 16:05 | 5.61098 | -24.39204 | 30943 ft | 482 kts | 46° |
| 2026-05-09 16:06 | 5.65837 | -24.34432 | 30943 ft | 482 kts | 46° |
| 2026-05-09 16:06 | 5.70539 | -24.29697 | 30945 ft | 482 kts | 46° |
| 2026-05-09 16:07 | 5.75281 | -24.24924 | 30947 ft | 482 kts | 46° |
| 2026-05-09 16:07 | 5.80026 | -24.20145 | 30947 ft | 482 kts | 46° |
| 2026-05-09 16:08 | 5.84732 | -24.15401 | 30946 ft | 482 kts | 46° |
| 2026-05-09 16:08 | 5.89471 | -24.10622 | 30946 ft | 482 kts | 46° |
| 2026-05-09 16:09 | 5.94223 | -24.05838 | 30943 ft | 483 kts | 46° |
| 2026-05-09 16:09 | 5.98952 | -24.01084 | 30945 ft | 484 kts | 44° |
| 2026-05-09 16:10 | 6.04162 | -23.96751 | 30948 ft | 485 kts | 39° |
| 2026-05-09 16:10 | 6.09455 | -23.92600 | 30950 ft | 485 kts | 39° |
| 2026-05-09 16:11 | 6.14811 | -23.88441 | 30949 ft | 485 kts | 39° |
| 2026-05-09 16:11 | 6.20114 | -23.84313 | 30949 ft | 485 kts | 39° |
| 2026-05-09 16:12 | 6.25456 | -23.80149 | 30948 ft | 485 kts | 38° |
| 2026-05-09 16:12 | 6.30801 | -23.75981 | 30949 ft | 486 kts | 39° |
| 2026-05-09 16:13 | 6.36111 | -23.71837 | 30952 ft | 485 kts | 38° |
| 2026-05-09 16:13 | 6.41454 | -23.67668 | 30951 ft | 485 kts | 39° |
| 2026-05-09 16:14 | 6.46794 | -23.63495 | 30954 ft | 485 kts | 39° |
| 2026-05-09 16:14 | 6.52102 | -23.59351 | 30952 ft | 485 kts | 39° |
| 2026-05-09 16:15 | 6.57436 | -23.55179 | 30954 ft | 485 kts | 39° |
| 2026-05-09 16:15 | 6.62770 | -23.51004 | 30952 ft | 485 kts | 39° |
| 2026-05-09 16:16 | 6.68067 | -23.46864 | 30951 ft | 485 kts | 39° |
| 2026-05-09 16:16 | 6.73408 | -23.42682 | 30952 ft | 485 kts | 39° |
| 2026-05-09 16:17 | 6.78737 | -23.38514 | 30957 ft | 484 kts | 39° |
| 2026-05-09 16:17 | 6.84030 | -23.34374 | 30958 ft | 484 kts | 39° |
| 2026-05-09 16:18 | 6.89349 | -23.30211 | 30954 ft | 484 kts | 38° |
| 2026-05-09 16:18 | 6.94678 | -23.26041 | 30956 ft | 484 kts | 39° |
| 2026-05-09 16:19 | 6.99995 | -23.21879 | 30952 ft | 484 kts | 39° |
| 2026-05-09 16:19 | 7.05290 | -23.17726 | 30955 ft | 485 kts | 38° |
| 2026-05-09 16:20 | 7.10621 | -23.13545 | 30958 ft | 485 kts | 38° |
| 2026-05-09 16:20 | 7.15961 | -23.09356 | 30956 ft | 485 kts | 38° |
| 2026-05-09 16:21 | 7.21262 | -23.05200 | 30959 ft | 485 kts | 39° |
| 2026-05-09 16:21 | 7.26589 | -23.01019 | 30957 ft | 485 kts | 39° |
| 2026-05-09 16:22 | 7.31915 | -22.96842 | 30958 ft | 485 kts | 39° |
| 2026-05-09 16:22 | 7.37244 | -22.92660 | 30958 ft | 486 kts | 38° |
| 2026-05-09 16:23 | 7.42598 | -22.88455 | 30961 ft | 487 kts | 38° |
| 2026-05-09 16:23 | 7.47920 | -22.84274 | 30957 ft | 488 kts | 39° |
| 2026-05-09 16:24 | 7.53273 | -22.80068 | 30960 ft | 488 kts | 39° |
| 2026-05-09 16:24 | 7.58604 | -22.75877 | 30962 ft | 488 kts | 39° |
| 2026-05-09 16:25 | 7.63095 | -22.72346 | 30960 ft | 488 kts | 39° |
| 2026-05-09 16:25 | 7.69316 | -22.67454 | 30958 ft | 488 kts | 39° |
| 2026-05-09 16:26 | 7.74671 | -22.63238 | 30961 ft | 489 kts | 38° |
| 2026-05-09 16:26 | 7.80052 | -22.59003 | 30959 ft | 490 kts | 39° |
| 2026-05-09 16:27 | 7.85403 | -22.54791 | 30962 ft | 490 kts | 38° |
| 2026-05-09 16:27 | 7.90785 | -22.50555 | 30961 ft | 490 kts | 39° |
| 2026-05-09 16:28 | 7.96165 | -22.46317 | 30966 ft | 490 kts | 39° |
| 2026-05-09 16:28 | 8.01548 | -22.42072 | 30956 ft | 490 kts | 38° |
| 2026-05-09 16:29 | 8.06897 | -22.37854 | 30959 ft | 489 kts | 39° |
| 2026-05-09 16:29 | 8.12284 | -22.33604 | 30961 ft | 492 kts | 38° |
| 2026-05-09 16:30 | 8.17668 | -22.29356 | 30965 ft | 494 kts | 38° |
| 2026-05-09 16:30 | 8.23086 | -22.25080 | 30960 ft | 494 kts | 38° |
| 2026-05-09 16:31 | 8.28514 | -22.20795 | 30959 ft | 494 kts | 38° |
| 2026-05-09 16:31 | 8.33905 | -22.16539 | 30963 ft | 494 kts | 38° |
| 2026-05-09 16:32 | 8.38414 | -22.12977 | 30963 ft | 494 kts | 38° |
| 2026-05-09 16:32 | 8.44754 | -22.07965 | 30957 ft | 495 kts | 38° |
| 2026-05-09 16:33 | 8.50160 | -22.03690 | 30967 ft | 497 kts | 38° |
| 2026-05-09 16:33 | 8.55615 | -21.99376 | 30962 ft | 497 kts | 38° |
| 2026-05-09 16:34 | 8.61061 | -21.95066 | 30963 ft | 497 kts | 38° |
| 2026-05-09 16:34 | 8.66477 | -21.90779 | 30967 ft | 497 kts | 38° |
| 2026-05-09 16:35 | 8.71934 | -21.86459 | 30962 ft | 498 kts | 38° |
| 2026-05-09 16:35 | 8.77396 | -21.82133 | 30967 ft | 497 kts | 38° |
| 2026-05-09 16:36 | 8.88279 | -21.73508 | 30964 ft | 499 kts | 38° |
| 2026-05-09 16:37 | 8.92819 | -21.69907 | 30965 ft | 499 kts | 38° |
| 2026-05-09 16:37 | 8.98290 | -21.65564 | 30961 ft | 499 kts | 38° |
| 2026-05-09 16:38 | 9.03756 | -21.61227 | 30970 ft | 499 kts | 38° |
| 2026-05-09 16:38 | 9.09196 | -21.56911 | 30964 ft | 499 kts | 38° |
| 2026-05-09 16:39 | 9.14662 | -21.52568 | 30963 ft | 499 kts | 38° |
| 2026-05-09 16:39 | 9.20145 | -21.48208 | 30967 ft | 500 kts | 38° |
| 2026-05-09 16:40 | 9.25598 | -21.43875 | 30960 ft | 501 kts | 38° |